createdAt,value
2022-08-16T00:00:03.200Z,19.70
2022-08-16T00:02:34.112Z,19.70
2022-08-16T00:05:05.628Z,19.70
2022-08-16T00:07:34.292Z,19.70
2022-08-16T00:10:04.833Z,19.70
2022-08-16T00:12:33.932Z,19.70
2022-08-16T00:15:11.516Z,19.70
2022-08-16T00:17:56.277Z,19.70
2022-08-16T00:20:27.608Z,19.70
2022-08-16T00:22:56.157Z,19.70
2022-08-16T00:26:36.582Z,19.70
2022-08-16T00:28:15.549Z,19.70
2022-08-16T00:30:43.879Z,19.70
2022-08-16T00:33:13.241Z,19.60
2022-08-16T00:35:42.987Z,19.60
2022-08-16T00:38:40.908Z,19.60
2022-08-16T00:41:01.793Z,19.60
2022-08-16T00:43:42.852Z,19.60
2022-08-16T00:46:22.416Z,19.60
2022-08-16T00:49:03.310Z,19.60
2022-08-16T00:51:33.696Z,19.60
2022-08-16T00:54:02.689Z,19.50
2022-08-16T00:56:56.601Z,19.50
2022-08-16T00:59:25.849Z,19.50
2022-08-16T01:01:54.601Z,19.50
2022-08-16T01:04:29.809Z,19.50
2022-08-16T01:07:03.015Z,19.40
2022-08-16T01:09:33.810Z,19.40
2022-08-16T01:12:04.609Z,19.40
2022-08-16T01:14:43.614Z,19.40
2022-08-16T01:17:14.686Z,19.40
2022-08-16T01:19:47.193Z,19.30
2022-08-16T01:22:48.559Z,19.30
2022-08-16T01:25:21.775Z,19.30
2022-08-16T01:27:54.590Z,19.30
2022-08-16T01:30:27.534Z,19.30
2022-08-16T01:33:02.550Z,19.30
2022-08-16T01:35:52.684Z,19.30
2022-08-16T01:38:25.698Z,19.30
2022-08-16T01:41:01.789Z,19.40
2022-08-16T01:43:32.722Z,19.40
2022-08-16T01:46:29.569Z,19.30
2022-08-16T01:48:56.498Z,19.30
2022-08-16T01:51:27.674Z,19.30
2022-08-16T01:53:57.603Z,19.40
2022-08-16T01:56:33.115Z,19.40
2022-08-16T01:59:07.838Z,19.30
2022-08-16T02:01:49.914Z,19.40
2022-08-16T02:04:48.835Z,19.40
2022-08-16T02:07:23.575Z,19.30
2022-08-16T02:09:58.790Z,19.30
2022-08-16T02:12:51.142Z,19.30
2022-08-16T02:15:26.045Z,19.30
2022-08-16T02:17:57.626Z,19.40
2022-08-16T02:20:28.010Z,19.40
2022-08-16T02:22:56.711Z,19.40
2022-08-16T02:25:25.171Z,19.40
2022-08-16T02:28:17.151Z,19.40
2022-08-16T02:30:50.492Z,19.40
2022-08-16T02:33:24.242Z,19.40
2022-08-16T02:35:58.303Z,19.40
2022-08-16T02:38:31.490Z,19.40
2022-08-16T02:41:09.618Z,19.40
2022-08-16T02:43:41.086Z,19.40
2022-08-16T02:46:10.796Z,19.40
2022-08-16T02:48:49.115Z,19.40
2022-08-16T02:51:19.632Z,19.40
2022-08-16T02:53:52.231Z,19.40
2022-08-16T02:56:22.080Z,19.40
2022-08-16T02:58:55.155Z,19.40
2022-08-16T03:01:37.210Z,19.40
2022-08-16T03:04:39.828Z,19.40
2022-08-16T03:07:09.259Z,19.40
2022-08-16T03:09:44.200Z,19.40
2022-08-16T03:12:16.391Z,19.40
2022-08-16T03:14:47.887Z,19.40
2022-08-16T03:17:18.620Z,19.40
2022-08-16T03:20:00.284Z,19.40
2022-08-16T03:22:37.232Z,19.40
2022-08-16T03:25:15.950Z,19.40
2022-08-16T03:27:54.171Z,19.40
2022-08-16T03:30:28.276Z,19.40
2022-08-16T03:33:00.800Z,19.40
2022-08-16T03:35:37.313Z,19.40
2022-08-16T03:38:35.999Z,19.40
2022-08-16T03:41:24.274Z,19.40
2022-08-16T03:43:57.259Z,19.40
2022-08-16T03:46:47.678Z,19.40
2022-08-16T03:49:37.065Z,19.40
2022-08-16T03:52:08.081Z,19.40
2022-08-16T03:54:38.298Z,19.40
2022-08-16T03:57:22.555Z,19.40
2022-08-16T03:59:54.017Z,19.40
2022-08-16T04:02:31.812Z,19.40
2022-08-16T04:05:04.083Z,19.40
2022-08-16T04:07:34.266Z,19.40
2022-08-16T04:10:36.897Z,19.40
2022-08-16T04:12:59.481Z,19.40
2022-08-16T04:15:30.657Z,19.40
2022-08-16T04:18:18.518Z,19.40
2022-08-16T04:20:46.900Z,19.40
2022-08-16T04:23:16.368Z,19.40
2022-08-16T04:25:47.073Z,19.40
2022-08-16T04:28:52.390Z,19.30
2022-08-16T04:31:07.218Z,19.30
2022-08-16T04:33:39.565Z,19.30
2022-08-16T04:36:20.949Z,19.30
2022-08-16T04:38:49.932Z,19.30
2022-08-16T04:41:18.632Z,19.20
2022-08-16T04:44:01.009Z,19.20
2022-08-16T04:47:02.176Z,19.20
2022-08-16T04:49:19.320Z,19.20
2022-08-16T04:51:53.600Z,19.20
2022-08-16T04:54:23.638Z,19.20
2022-08-16T04:56:52.135Z,19.20
2022-08-16T04:59:22.172Z,19.20
2022-08-16T05:01:58.609Z,19.20
2022-08-16T05:04:30.091Z,19.20
2022-08-16T05:06:59.253Z,19.10
2022-08-16T05:09:45.064Z,19.10
2022-08-16T05:12:18.244Z,19.10
2022-08-16T05:15:02.235Z,19.10
2022-08-16T05:17:33.858Z,19.20
2022-08-16T05:20:38.843Z,19.20
2022-08-16T05:22:59.564Z,19.20
2022-08-16T05:25:36.415Z,19.20
2022-08-16T05:28:11.819Z,19.20
2022-08-16T05:30:44.649Z,19.20
2022-08-16T05:33:18.620Z,19.20
2022-08-16T05:35:55.012Z,19.20
2022-08-16T05:38:39.641Z,19.30
2022-08-16T05:41:13.809Z,19.30
2022-08-16T05:43:47.704Z,19.30
2022-08-16T05:47:02.718Z,19.40
2022-08-16T05:50:03.974Z,19.40
2022-08-16T05:52:59.051Z,19.40
2022-08-16T05:55:41.936Z,19.40
2022-08-16T05:58:33.291Z,19.40
2022-08-16T06:01:13.765Z,19.30
2022-08-16T06:04:04.819Z,19.30
2022-08-16T06:07:08.164Z,19.20
2022-08-16T06:10:03.828Z,19.30
2022-08-16T06:12:55.846Z,19.30
2022-08-16T06:15:35.917Z,19.30
2022-08-16T06:21:31.119Z,19.30
2022-08-16T06:24:53.620Z,19.30
2022-08-16T06:30:56.310Z,19.40
2022-08-16T06:33:53.040Z,19.40
2022-08-16T06:36:27.177Z,19.40
2022-08-16T06:39:18.757Z,19.50
2022-08-16T06:42:07.174Z,19.50
2022-08-16T06:44:57.194Z,19.50
2022-08-16T06:47:57.112Z,19.50
2022-08-16T06:50:29.977Z,19.50
2022-08-16T06:53:08.303Z,19.50
2022-08-16T06:55:43.061Z,19.50
2022-08-16T06:58:22.749Z,19.60
2022-08-16T07:01:15.674Z,19.50
2022-08-16T07:03:55.028Z,19.50
2022-08-16T07:06:26.743Z,19.60
2022-08-16T07:08:58.193Z,19.60
2022-08-16T07:11:47.804Z,19.60
2022-08-16T07:14:27.584Z,19.70
2022-08-16T07:17:01.354Z,19.70
2022-08-16T07:20:04.117Z,19.70
2022-08-16T07:22:39.198Z,19.70
2022-08-16T07:25:16.713Z,19.70
2022-08-16T07:27:45.997Z,19.70
2022-08-16T07:30:45.980Z,19.80
2022-08-16T07:33:10.847Z,19.80
2022-08-16T07:35:49.834Z,19.80
2022-08-16T07:38:20.257Z,19.80
2022-08-16T07:41:09.902Z,19.80
2022-08-16T07:43:41.865Z,19.80
2022-08-16T07:46:37.624Z,19.80
2022-08-16T07:49:11.248Z,19.90
2022-08-16T07:51:42.247Z,19.80
2022-08-16T07:54:20.795Z,19.80
2022-08-16T07:56:53.177Z,19.80
2022-08-16T07:59:24.606Z,19.70
2022-08-16T08:01:53.332Z,19.60
2022-08-16T08:04:24.321Z,19.60
2022-08-16T08:07:01.398Z,19.70
2022-08-16T08:09:37.512Z,19.70
2022-08-16T08:12:31.437Z,19.80
2022-08-16T08:15:01.014Z,19.80
2022-08-16T08:17:42.726Z,19.90
2022-08-16T08:20:28.114Z,19.90
2022-08-16T08:23:00.539Z,19.90
2022-08-16T08:25:53.458Z,19.90
2022-08-16T08:28:20.520Z,19.90
2022-08-16T08:31:01.039Z,19.90
2022-08-16T08:33:47.433Z,19.90
2022-08-16T08:36:33.112Z,19.90
2022-08-16T08:39:12.720Z,20.00
2022-08-16T08:41:42.545Z,20.00
2022-08-16T08:44:28.851Z,20.10
2022-08-16T08:47:01.873Z,20.20
2022-08-16T08:49:46.559Z,20.30
2022-08-16T08:52:34.404Z,20.40
2022-08-16T08:55:10.470Z,20.50
2022-08-16T08:57:41.101Z,20.60
2022-08-16T09:00:32.179Z,21.00
2022-08-16T09:03:18.967Z,21.90
2022-08-16T09:05:51.781Z,22.50
2022-08-16T09:08:26.457Z,22.60
2022-08-16T09:11:10.417Z,22.90
2022-08-16T09:13:49.460Z,23.30
2022-08-16T09:17:00.782Z,24.10
2022-08-16T09:19:19.599Z,24.60
2022-08-16T09:22:01.565Z,25.40
2022-08-16T09:24:52.336Z,25.50
2022-08-16T09:27:20.439Z,25.80
2022-08-16T09:29:49.249Z,26.80
2022-08-16T09:32:30.964Z,27.40
2022-08-16T09:35:01.553Z,27.70
2022-08-16T09:37:36.388Z,27.80
2022-08-16T09:40:32.721Z,28.00
2022-08-16T09:42:59.937Z,27.90
2022-08-16T09:45:31.294Z,28.60
2022-08-16T09:48:02.131Z,28.90
2022-08-16T09:50:36.742Z,29.60
2022-08-16T09:53:15.304Z,29.90
2022-08-16T09:55:49.448Z,29.90
2022-08-16T09:58:40.482Z,30.30
2022-08-16T10:01:17.838Z,30.80
2022-08-16T10:04:02.794Z,31.30
2022-08-16T10:06:33.541Z,31.70
2022-08-16T10:09:06.863Z,32.00
2022-08-16T10:12:17.915Z,32.10
2022-08-16T10:14:48.481Z,32.00
2022-08-16T10:17:17.217Z,32.20
2022-08-16T10:19:47.089Z,31.70
2022-08-16T10:22:19.039Z,31.50
2022-08-16T10:24:56.132Z,31.70
2022-08-16T10:27:45.788Z,31.90
2022-08-16T10:30:24.942Z,31.80
2022-08-16T10:32:55.179Z,31.10
2022-08-16T10:35:24.015Z,30.70
2022-08-16T10:38:02.220Z,30.30
2022-08-16T10:40:36.983Z,30.40
2022-08-16T10:43:08.463Z,30.30
2022-08-16T10:45:59.876Z,30.20
2022-08-16T10:48:32.065Z,29.90
2022-08-16T10:51:01.851Z,30.10
2022-08-16T10:56:52.452Z,31.00
2022-08-16T10:59:58.333Z,31.00
2022-08-16T11:03:04.739Z,31.20
2022-08-16T11:05:18.856Z,30.60
2022-08-16T11:07:52.045Z,30.10
2022-08-16T11:19:05.925Z,30.40
2022-08-16T11:24:39.873Z,29.70
2022-08-16T11:27:35.352Z,29.30
2022-08-16T11:29:58.575Z,28.90
2022-08-16T11:32:32.419Z,28.60
2022-08-16T11:35:10.290Z,28.30
2022-08-16T11:40:33.158Z,28.60
2022-08-16T11:43:04.082Z,28.50
2022-08-16T11:45:34.763Z,28.80
2022-08-16T11:48:06.481Z,29.10
2022-08-16T11:50:36.169Z,28.90
2022-08-16T11:53:08.222Z,28.70
2022-08-16T11:55:38.275Z,28.50
2022-08-16T11:58:11.010Z,28.40
2022-08-16T12:00:51.922Z,28.30
2022-08-16T12:03:34.211Z,28.00
2022-08-16T12:06:10.911Z,28.00
2022-08-16T12:08:55.604Z,28.30
2022-08-16T12:11:26.522Z,28.70
2022-08-16T12:13:55.420Z,28.80
2022-08-16T12:16:24.445Z,28.80
2022-08-16T12:19:01.507Z,28.70
2022-08-16T12:21:57.685Z,28.50
2022-08-16T12:24:23.914Z,28.40
2022-08-16T12:26:53.860Z,28.10
2022-08-16T12:29:22.557Z,27.90
2022-08-16T12:32:01.046Z,27.90
2022-08-16T12:34:48.187Z,28.00
2022-08-16T12:37:26.089Z,28.00
2022-08-16T12:39:57.736Z,28.10
2022-08-16T12:42:34.655Z,28.20
2022-08-16T12:45:06.972Z,28.10
2022-08-16T12:48:04.938Z,28.10
2022-08-16T12:50:42.770Z,28.20
2022-08-16T12:53:17.938Z,28.20
2022-08-16T12:55:46.386Z,28.10
2022-08-16T12:58:48.762Z,28.10
2022-08-16T13:01:06.790Z,28.00
2022-08-16T13:03:41.372Z,28.00
2022-08-16T13:06:12.539Z,28.00
2022-08-16T13:08:41.467Z,27.90
2022-08-16T13:11:17.705Z,28.00
2022-08-16T13:13:46.518Z,28.20
2022-08-16T13:16:27.231Z,28.20
2022-08-16T13:18:55.752Z,28.20
2022-08-16T13:21:34.835Z,28.10
2022-08-16T13:24:08.778Z,28.20
2022-08-16T13:26:45.998Z,28.20
2022-08-16T13:29:24.945Z,27.80
2022-08-16T13:32:09.413Z,27.80
2022-08-16T13:34:57.892Z,27.80
2022-08-16T13:37:27.671Z,27.90
2022-08-16T13:39:56.492Z,28.00
2022-08-16T13:42:25.390Z,28.00
2022-08-16T13:44:58.077Z,28.00
2022-08-16T13:47:30.307Z,28.00
2022-08-16T13:49:58.846Z,27.90
2022-08-16T13:52:33.987Z,27.70
2022-08-16T13:55:02.915Z,27.70
2022-08-16T13:57:42.921Z,27.70
2022-08-16T14:00:21.766Z,27.80
2022-08-16T14:02:53.767Z,27.60
2022-08-16T14:05:24.634Z,27.50
2022-08-16T14:07:54.543Z,27.50
2022-08-16T14:10:23.174Z,27.50
2022-08-16T14:12:51.992Z,27.50
2022-08-16T14:15:20.993Z,27.60
2022-08-16T14:18:15.648Z,27.50
2022-08-16T14:20:38.563Z,27.40
2022-08-16T14:23:08.487Z,27.30
2022-08-16T14:25:37.290Z,27.40
2022-08-16T14:28:05.831Z,27.50
2022-08-16T14:30:39.018Z,27.50
2022-08-16T14:33:09.181Z,27.40
2022-08-16T14:35:49.187Z,27.20
2022-08-16T14:38:29.790Z,27.10
2022-08-16T14:41:10.469Z,27.00
2022-08-16T14:43:43.421Z,27.10
2022-08-16T14:46:11.934Z,27.20
2022-08-16T14:48:50.867Z,27.20
2022-08-16T14:51:23.474Z,27.20
2022-08-16T14:54:01.364Z,27.10
2022-08-16T14:56:38.839Z,27.10
2022-08-16T14:59:11.256Z,27.10
2022-08-16T15:01:57.854Z,26.90
2022-08-16T15:04:36.874Z,26.90
2022-08-16T15:07:12.872Z,26.80
2022-08-16T15:10:00.993Z,26.90
2022-08-16T15:12:36.339Z,26.90
2022-08-16T15:15:13.056Z,27.00
2022-08-16T15:17:55.899Z,27.00
2022-08-16T15:20:29.208Z,27.00
2022-08-16T15:23:34.353Z,27.00
2022-08-16T15:26:08.009Z,26.90
2022-08-16T15:28:37.910Z,26.80
2022-08-16T15:31:09.235Z,26.70
2022-08-16T15:33:43.453Z,26.60
2022-08-16T15:36:18.053Z,26.50
2022-08-16T15:38:58.060Z,26.40
2022-08-16T15:42:27.268Z,26.30
2022-08-16T15:44:58.632Z,26.20
2022-08-16T15:47:28.459Z,26.20
2022-08-16T15:49:57.938Z,26.00
2022-08-16T15:52:31.803Z,26.00
2022-08-16T15:55:07.370Z,25.90
2022-08-16T15:57:45.074Z,25.90
2022-08-16T16:00:15.731Z,25.80
2022-08-16T16:02:45.205Z,25.80
2022-08-16T16:05:17.445Z,25.60
2022-08-16T16:07:56.442Z,25.60
2022-08-16T16:10:29.429Z,25.50
2022-08-16T16:13:03.740Z,25.50
2022-08-16T16:15:35.916Z,25.50
2022-08-16T16:18:09.390Z,25.40
2022-08-16T16:20:43.500Z,25.30
2022-08-16T16:23:14.611Z,25.30
2022-08-16T16:25:44.888Z,25.30
2022-08-16T16:29:06.458Z,25.30
2022-08-16T16:31:07.895Z,25.30
2022-08-16T16:33:39.873Z,25.30
2022-08-16T16:36:11.326Z,25.30
2022-08-16T16:38:41.958Z,25.30
2022-08-16T16:41:14.052Z,25.30
2022-08-16T16:43:45.533Z,25.30
2022-08-16T16:46:42.760Z,25.30
2022-08-16T16:49:08.807Z,25.30
2022-08-16T16:51:41.291Z,25.30
2022-08-16T16:54:27.489Z,25.20
2022-08-16T16:56:57.830Z,25.10
2022-08-16T16:59:28.300Z,25.00
2022-08-16T17:02:41.559Z,25.00
2022-08-16T17:04:47.837Z,24.80
2022-08-16T17:07:23.944Z,24.70
2022-08-16T17:10:04.295Z,24.60
2022-08-16T17:12:47.451Z,24.50
2022-08-16T17:15:18.247Z,24.50
2022-08-16T17:18:00.156Z,24.40
2022-08-16T17:20:30.694Z,24.20
2022-08-16T17:23:03.972Z,24.10
2022-08-16T17:25:36.338Z,24.00
2022-08-16T17:28:57.772Z,23.70
2022-08-16T17:30:56.426Z,23.60
2022-08-16T17:33:26.257Z,23.30
2022-08-16T17:35:55.650Z,23.20
2022-08-16T17:38:33.051Z,23.10
2022-08-16T17:41:09.435Z,23.00
2022-08-16T17:43:44.548Z,22.80
2022-08-16T17:46:41.542Z,22.70
2022-08-16T17:49:05.765Z,22.60
2022-08-16T17:51:34.807Z,22.50
2022-08-16T17:54:04.029Z,22.30
2022-08-16T17:56:32.694Z,22.30
2022-08-16T17:59:01.902Z,22.30
2022-08-16T18:01:31.827Z,22.20
2022-08-16T18:04:08.745Z,22.10
2022-08-16T18:06:38.583Z,22.00
2022-08-16T18:09:09.302Z,22.00
2022-08-16T18:11:40.832Z,22.00
2022-08-16T18:14:11.433Z,22.10
2022-08-16T18:16:41.375Z,22.10
2022-08-16T18:19:10.107Z,22.10
2022-08-16T18:21:52.340Z,22.10
2022-08-16T18:24:21.373Z,22.00
2022-08-16T18:26:49.686Z,22.00
2022-08-16T18:29:19.626Z,21.90
2022-08-16T18:31:50.928Z,21.80
2022-08-16T18:34:20.672Z,21.70
2022-08-16T18:36:50.899Z,21.70
2022-08-16T18:39:19.174Z,21.70
2022-08-16T18:41:47.910Z,21.60
2022-08-16T18:44:26.537Z,21.70
2022-08-16T18:46:58.255Z,21.70
2022-08-16T18:49:26.613Z,21.60
2022-08-16T18:51:58.613Z,21.70
2022-08-16T18:54:29.206Z,21.70
2022-08-16T18:56:58.508Z,21.70
2022-08-16T18:59:28.524Z,21.70
2022-08-16T19:02:04.971Z,21.70
2022-08-16T19:04:55.364Z,21.60
2022-08-16T19:07:31.001Z,21.50
2022-08-16T19:10:01.937Z,21.40
2022-08-16T19:12:38.003Z,21.30
2022-08-16T19:15:14.571Z,21.20
2022-08-16T19:17:47.196Z,21.10
2022-08-16T19:20:18.195Z,20.90
2022-08-16T19:23:05.914Z,20.90
2022-08-16T19:25:48.238Z,20.80
2022-08-16T19:28:49.541Z,20.80
2022-08-16T19:31:12.128Z,20.70
2022-08-16T19:33:53.548Z,20.60
2022-08-16T19:36:31.893Z,20.60
2022-08-16T19:39:06.792Z,20.50
2022-08-16T19:41:45.170Z,20.60
2022-08-16T19:44:14.535Z,20.50
2022-08-16T19:46:44.921Z,20.50
2022-08-16T19:49:16.375Z,20.50
2022-08-16T19:51:45.353Z,20.40
2022-08-16T19:54:13.884Z,20.50
2022-08-16T19:56:42.343Z,20.50
2022-08-16T19:59:19.810Z,20.40
2022-08-16T20:01:51.741Z,20.50
2022-08-16T20:04:22.811Z,20.40
2022-08-16T20:06:52.494Z,20.40
2022-08-16T20:09:21.238Z,20.40
2022-08-16T20:11:52.035Z,20.30
2022-08-16T20:14:25.613Z,20.30
2022-08-16T20:16:56.645Z,20.30
2022-08-16T20:19:27.276Z,20.20
2022-08-16T20:21:57.279Z,20.20
2022-08-16T20:24:34.778Z,20.20
2022-08-16T20:27:04.648Z,20.20
2022-08-16T20:29:33.143Z,20.10
2022-08-16T20:32:01.747Z,20.10
2022-08-16T20:34:31.679Z,20.10
2022-08-16T20:37:00.178Z,20.00
2022-08-16T20:39:28.680Z,20.00
2022-08-16T20:41:57.267Z,20.00
2022-08-16T20:44:25.666Z,20.00
2022-08-16T20:46:54.722Z,19.90
2022-08-16T20:49:23.384Z,19.90
2022-08-16T20:52:13.616Z,19.80
2022-08-16T20:54:42.854Z,19.70
2022-08-16T20:57:12.052Z,19.70
2022-08-16T20:59:40.706Z,19.70
2022-08-16T21:02:10.462Z,19.70
2022-08-16T21:04:39.333Z,19.70
2022-08-16T21:07:09.635Z,19.70
2022-08-16T21:09:38.567Z,19.70
2022-08-16T21:12:11.463Z,19.60
2022-08-16T21:14:43.091Z,19.60
2022-08-16T21:17:13.083Z,19.60
2022-08-16T21:19:41.708Z,19.60
2022-08-16T21:22:17.499Z,19.50
2022-08-16T21:24:53.876Z,19.50
2022-08-16T21:27:26.847Z,19.50
2022-08-16T21:29:57.168Z,19.40
2022-08-16T21:32:46.210Z,19.40
2022-08-16T21:35:16.669Z,19.40
2022-08-16T21:38:08.262Z,19.40
2022-08-16T21:40:37.256Z,19.40
2022-08-16T21:43:07.300Z,19.30
2022-08-16T21:45:35.773Z,19.30
2022-08-16T21:48:04.692Z,19.30
2022-08-16T21:50:33.617Z,19.30
2022-08-16T21:53:09.964Z,19.30
2022-08-16T21:55:39.886Z,19.20
2022-08-16T21:58:08.571Z,19.20
2022-08-16T22:00:37.174Z,19.20
2022-08-16T22:03:09.780Z,19.20
2022-08-16T22:05:39.887Z,19.10
2022-08-16T22:08:10.220Z,19.00
2022-08-16T22:11:07.127Z,19.00
2022-08-16T22:13:28.750Z,19.00
2022-08-16T22:15:57.442Z,19.00
2022-08-16T22:18:25.721Z,19.00
2022-08-16T22:20:55.297Z,19.10
2022-08-16T22:23:27.532Z,19.00
2022-08-16T22:25:56.906Z,19.00
2022-08-16T22:28:25.621Z,19.10
2022-08-16T22:30:54.969Z,19.00
2022-08-16T22:33:25.829Z,18.90
2022-08-16T22:35:56.178Z,18.90
2022-08-16T22:38:55.611Z,18.90
2022-08-16T22:41:14.802Z,18.90
2022-08-16T22:43:46.195Z,18.90
2022-08-16T22:46:14.494Z,18.90
2022-08-16T22:48:43.090Z,18.90
2022-08-16T22:51:11.359Z,18.90
2022-08-16T22:53:41.016Z,19.00
2022-08-16T22:56:09.705Z,18.90
2022-08-16T22:58:38.070Z,18.90
2022-08-16T23:01:07.333Z,18.90
2022-08-16T23:03:36.197Z,18.90
2022-08-16T23:06:05.810Z,18.90
2022-08-16T23:08:39.602Z,18.90
2022-08-16T23:11:12.057Z,18.90
2022-08-16T23:13:50.038Z,18.90
2022-08-16T23:16:24.985Z,18.90
2022-08-16T23:19:01.988Z,18.90
2022-08-16T23:21:31.026Z,18.90
2022-08-16T23:23:59.418Z,18.80
2022-08-16T23:26:46.192Z,18.80
2022-08-16T23:29:23.363Z,18.80
2022-08-16T23:31:59.809Z,18.70
2022-08-16T23:34:29.448Z,18.70
2022-08-16T23:36:58.195Z,18.70
2022-08-16T23:39:27.022Z,18.70
2022-08-16T23:41:56.761Z,18.70
2022-08-16T23:44:56.742Z,18.60
2022-08-16T23:47:13.569Z,18.60
2022-08-16T23:49:58.240Z,18.60
2022-08-16T23:52:53.877Z,18.50
2022-08-16T23:55:18.631Z,18.40
2022-08-16T23:57:48.410Z,18.40
